Time;durP1;ratioP1;P1;durP2;ratioP2;P2;SDS_P1;SDS_P2;PMS_P1;PMS_P2;Temp;Humidity;BMP_temperature;BMP_pressure;BME280_temperature;BME280_humidity;BME280_pressure;Samples;Min_cycle;Max_cycle;Signal;HPM_P1;HPM_P2
2022/12/25 00:00:07;;;;;;;26.70;10.80;;;;;;;-1.21;97.20;100004.13;105910;1284;58459;-70
2022/12/25 00:03:14;;;;;;;29.30;11.60;;;;;;;-1.16;97.41;100010.27;105929;1298;62685;-69
2022/12/25 00:06:03;;;;;;;25.60;11.40;;;;;;;-1.13;97.24;100013.33;105790;1294;73575;-70
2022/12/25 00:08:51;;;;;;;23.80;10.40;;;;;;;-1.11;97.12;100016.56;105745;1298;67655;-68
2022/12/25 00:11:39;;;;;;;26.70;10.20;;;;;;;-1.12;96.86;100018.84;105920;1292;72634;-69
2022/12/25 00:14:27;;;;;;;24.50;10.20;;;;;;;-1.15;96.74;100021.05;105746;1293;58063;-70
2022/12/25 00:17:15;;;;;;;22.10;8.80;;;;;;;-1.19;97.04;100028.98;105798;1295;58662;-69
2022/12/25 00:20:04;;;;;;;22.90;9.50;;;;;;;-1.25;97.26;100038.92;104996;1295;1002861;-69
2022/12/25 00:22:51;;;;;;;23.80;10.60;;;;;;;-1.28;97.58;100039.70;105832;1290;67823;-69
2022/12/25 00:25:39;;;;;;;21.00;9.40;;;;;;;-1.30;97.97;100046.03;105065;1290;1002025;-70
2022/12/25 00:28:27;;;;;;;22.80;9.60;;;;;;;-1.35;98.10;100051.02;105806;1298;58509;-66
2022/12/25 00:31:16;;;;;;;23.80;9.60;;;;;;;-1.34;98.13;100055.20;105741;1295;59106;-68
2022/12/25 00:34:04;;;;;;;24.80;10.30;;;;;;;-1.31;98.15;100055.46;105834;1279;73659;-69
2022/12/25 00:36:52;;;;;;;23.70;10.00;;;;;;;-1.27;98.27;100056.55;105834;1290;65880;-68
2022/12/25 00:39:40;;;;;;;26.70;10.00;;;;;;;-1.23;98.04;100059.04;105064;1293;1002343;-70
2022/12/25 00:42:28;;;;;;;23.40;8.80;;;;;;;-1.25;97.97;100059.29;105804;1295;58221;-68
2022/12/25 00:45:16;;;;;;;21.40;9.10;;;;;;;-1.28;97.98;100058.16;105839;1290;60673;-70
2022/12/25 00:48:04;;;;;;;24.20;9.60;;;;;;;-1.29;98.18;100060.79;105694;1295;74982;-69
2022/12/25 00:50:56;;;;;;;24.50;9.70;;;;;;;-1.29;98.45;100064.95;105842;1295;66349;-69
2022/12/25 00:53:44;;;;;;;24.50;9.60;;;;;;;-1.31;98.55;100070.61;105814;1291;72764;-67
2022/12/25 00:56:32;;;;;;;27.60;10.50;;;;;;;-1.33;98.66;100073.80;105825;1295;57979;-68
2022/12/25 00:59:20;;;;;;;26.20;10.00;;;;;;;-1.31;98.81;100078.62;105847;1289;58637;-67
2022/12/25 01:02:23;;;;;;;30.50;10.90;;;;;;;-1.26;98.85;100077.61;105808;1295;72258;-69
2022/12/25 01:05:11;;;;;;;28.30;10.40;;;;;;;-1.21;98.89;100072.73;105830;1290;68714;-69
2022/12/25 01:07:59;;;;;;;27.40;11.60;;;;;;;-1.20;98.67;100074.45;105838;1294;72518;-70
2022/12/25 01:11:05;;;;;;;27.60;10.40;;;;;;;-1.19;98.79;100080.52;105808;1295;57959;-69
2022/12/25 01:13:53;;;;;;;26.60;9.30;;;;;;;-1.21;98.97;100082.67;105859;1299;60388;-70
2022/12/25 01:16:41;;;;;;;28.00;10.10;;;;;;;-1.25;98.99;100077.22;105716;1297;73208;-70
2022/12/25 01:19:29;;;;;;;34.00;12.30;;;;;;;-1.26;99.55;100073.79;105834;1294;66503;-69
2022/12/25 01:22:17;;;;;;;28.60;10.60;;;;;;;-1.28;99.52;100072.95;105818;1294;72694;-68
2022/12/25 01:25:06;;;;;;;32.30;12.20;;;;;;;-1.27;99.62;100069.11;105820;1290;58843;-69
2022/12/25 01:27:53;;;;;;;32.50;11.70;;;;;;;-1.23;99.62;100072.45;105822;1302;60141;-69
2022/12/25 01:30:48;;;;;;;30.60;11.20;;;;;;;-1.22;99.77;100071.89;105747;1294;74883;-70
2022/12/25 01:33:37;;;;;;;39.30;12.60;;;;;;;-1.20;99.56;100074.12;104952;1295;1002196;-71
2022/12/25 01:36:26;;;;;;;29.00;11.10;;;;;;;-1.20;99.78;100075.33;105665;1295;73999;-71
2022/12/25 01:39:14;;;;;;;33.90;11.80;;;;;;;-1.16;99.72;100077.14;105647;1290;57948;-70
2022/12/25 01:42:04;;;;;;;31.90;10.90;;;;;;;-1.14;99.60;100081.44;105595;1296;60157;-70
2022/12/25 01:44:51;;;;;;;26.40;10.30;;;;;;;-1.15;99.47;100084.42;105711;1297;73804;-69
2022/12/25 01:47:39;;;;;;;28.10;11.50;;;;;;;-1.18;99.48;100081.17;105689;1295;66835;-69
2022/12/25 01:50:27;;;;;;;29.30;10.10;;;;;;;-1.19;99.38;100078.25;105690;1293;71584;-68
2022/12/25 01:53:15;;;;;;;29.00;11.20;;;;;;;-1.23;99.58;100077.84;104798;1294;1002023;-69
2022/12/25 01:56:07;;;;;;;31.20;11.60;;;;;;;-1.27;99.63;100083.70;105633;1300;60019;-69
2022/12/25 01:58:56;;;;;;;37.30;12.80;;;;;;;-1.28;99.66;100088.79;105600;1294;73917;-68
2022/12/25 02:01:45;;;;;;;31.50;10.80;;;;;;;-1.29;100.00;100091.25;105692;1294;67936;-68
2022/12/25 02:04:49;;;;;;;36.00;13.70;;;;;;;-1.30;100.00;100091.80;105629;1287;72481;-68
2022/12/25 02:07:40;;;;;;;32.90;12.30;;;;;;;-1.28;100.00;100098.20;105583;1297;58110;-69
2022/12/25 02:10:29;;;;;;;34.50;11.80;;;;;;;-1.26;100.00;100100.21;105703;1298;60087;-68
2022/12/25 02:13:18;;;;;;;37.50;12.50;;;;;;;-1.29;100.00;100098.22;105704;1293;73908;-67
2022/12/25 02:16:19;;;;;;;36.60;13.20;;;;;;;-1.33;100.00;100085.27;105692;1293;67670;-68
2022/12/25 02:19:58;;;;;;;39.00;14.80;;;;;;;-1.28;100.00;100093.85;104937;1288;1002786;-66
2022/12/25 02:23:23;;;;;;;38.70;13.20;;;;;;;-1.23;100.00;100091.27;104897;1300;1002400;-68
2022/12/25 02:26:35;;;;;;;35.10;12.90;;;;;;;-1.21;100.00;100090.15;105701;1294;60257;-67
2022/12/25 02:29:58;;;;;;;32.20;12.00;;;;;;;-1.26;100.00;100091.52;105697;1300;72658;-67
2022/12/25 02:34:01;;;;;;;29.40;11.20;;;;;;;-1.30;100.00;100091.98;104954;1294;1002071;-67
2022/12/25 02:36:15;;;;;;;38.30;13.70;;;;;;;-1.33;100.00;100090.16;105624;1297;72625;-69
2022/12/25 03:08:41;;;;;;;40.80;13.10;;;;;;;-1.35;100.00;100080.98;104654;1302;72427;-67
2022/12/25 03:11:31;;;;;;;30.60;9.30;;;;;;;-1.37;100.00;100084.33;104703;1305;58655;-68
2022/12/25 03:17:26;;;;;;;39.30;13.10;;;;;;;-1.43;100.00;100083.45;104879;1306;73763;-67
2022/12/25 03:26:54;;;;;;;32.90;12.10;;;;;;;-1.43;100.00;100103.64;105335;1298;58467;-67
2022/12/25 03:33:04;;;;;;;29.00;10.40;;;;;;;-1.56;100.00;100115.67;105334;1290;73535;-69
2022/12/25 03:36:39;;;;;;;30.40;10.90;;;;;;;-1.62;100.00;100119.15;105346;1303;69816;-67
2022/12/25 04:37:20;;;;;;;22.80;9.20;;;;;;;-1.56;100.00;100166.99;105308;1300;73541;-68
2022/12/25 04:40:09;;;;;;;22.80;8.70;;;;;;;-1.60;100.00;100164.85;105349;1300;67560;-67
2022/12/25 04:42:57;;;;;;;20.40;7.70;;;;;;;-1.62;100.00;100165.77;105313;1298;72752;-69
2022/12/25 04:45:55;;;;;;;29.30;9.80;;;;;;;-1.63;100.00;100167.36;105357;1306;58040;-67
2022/12/25 04:48:43;;;;;;;22.00;9.00;;;;;;;-1.62;100.00;100165.07;105363;1300;59133;-68
2022/12/25 04:51:31;;;;;;;23.70;8.90;;;;;;;-1.60;100.00;100163.98;105702;1288;73584;-68
2022/12/25 04:54:19;;;;;;;19.90;8.50;;;;;;;-1.62;100.00;100169.58;105591;1294;67614;-68
2022/12/25 04:57:07;;;;;;;21.70;8.20;;;;;;;-1.64;100.00;100161.83;105556;1295;72532;-68
2022/12/25 04:59:55;;;;;;;21.00;8.10;;;;;;;-1.68;100.00;100160.52;105676;1294;58420;-69
2022/12/25 05:02:43;;;;;;;21.20;9.00;;;;;;;-1.66;100.00;100165.36;105698;1293;58972;-67
2022/12/25 05:05:31;;;;;;;22.40;9.20;;;;;;;-1.65;100.00;100173.14;105697;1295;72309;-67
2022/12/25 05:08:20;;;;;;;20.80;9.00;;;;;;;-1.60;100.00;100171.61;105702;1294;69437;-67
2022/12/25 05:11:11;;;;;;;18.00;7.30;;;;;;;-1.54;100.00;100171.30;105683;1294;72363;-67
2022/12/25 05:13:59;;;;;;;27.10;10.70;;;;;;;-1.52;100.00;100163.92;105511;1292;57988;-67
2022/12/25 05:16:48;;;;;;;23.90;9.80;;;;;;;-1.50;100.00;100167.17;105581;1288;61249;-67
2022/12/25 05:19:36;;;;;;;25.50;9.80;;;;;;;-1.46;100.00;100170.05;105703;1293;72527;-68
2022/12/25 05:22:24;;;;;;;26.00;10.60;;;;;;;-1.47;100.00;100176.15;105691;1294;66172;-69
2022/12/25 05:25:12;;;;;;;25.40;10.90;;;;;;;-1.45;100.00;100178.91;105693;1293;72438;-67
2022/12/25 05:28:00;;;;;;;25.40;9.90;;;;;;;-1.45;100.00;100170.73;105688;1294;58032;-68
2022/12/25 05:30:47;;;;;;;22.10;8.90;;;;;;;-1.47;100.00;100169.38;105662;1294;61548;-68
2022/12/25 05:33:35;;;;;;;23.10;9.80;;;;;;;-1.50;100.00;100175.38;105589;1294;72704;-69
2022/12/25 05:36:23;;;;;;;27.90;10.20;;;;;;;-1.51;100.00;100175.93;105699;1294;69286;-67
2022/12/25 05:39:11;;;;;;;25.80;9.30;;;;;;;-1.52;100.00;100176.99;105707;1294;71017;-68
2022/12/25 05:41:59;;;;;;;19.60;7.70;;;;;;;-1.50;100.00;100169.30;105800;1293;58064;-67
2022/12/25 05:44:47;;;;;;;21.90;9.00;;;;;;;-1.54;100.00;100166.77;105741;1294;60033;-68
2022/12/25 05:47:35;;;;;;;24.20;9.20;;;;;;;-1.57;100.00;100165.81;105830;1287;72431;-67
2022/12/25 05:50:23;;;;;;;24.50;10.00;;;;;;;-1.60;100.00;100164.49;101322;1293;5102611;-67
2022/12/25 05:53:23;;;;;;;26.00;9.80;;;;;;;-1.64;100.00;100163.21;105811;1285;57831;-67
2022/12/25 05:56:11;;;;;;;26.50;10.00;;;;;;;-1.70;100.00;100170.83;105820;1287;61307;-67
2022/12/25 05:58:59;;;;;;;28.60;10.30;;;;;;;-1.75;99.95;100185.41;105812;1287;73780;-68
2022/12/25 06:01:47;;;;;;;26.10;10.70;;;;;;;-1.78;100.00;100193.46;105096;1294;1002049;-67
2022/12/25 06:04:35;;;;;;;26.00;9.60;;;;;;;-1.82;100.00;100196.89;105793;1294;73474;-66
2022/12/25 06:07:23;;;;;;;26.20;9.80;;;;;;;-1.86;100.00;100200.30;105718;1293;58356;-67
2022/12/25 06:10:11;;;;;;;27.30;11.70;;;;;;;-1.93;100.00;100191.06;105838;1295;60268;-67
2022/12/25 06:12:59;;;;;;;27.90;10.70;;;;;;;-1.95;100.00;100191.64;105830;1287;73580;-67
2022/12/25 06:15:47;;;;;;;23.60;10.10;;;;;;;-1.95;100.00;100189.54;105121;1286;1002805;-66
2022/12/25 06:18:47;;;;;;;22.80;9.10;;;;;;;-1.96;100.00;100186.79;105862;1287;72695;-69
2022/12/25 06:21:35;;;;;;;24.80;9.40;;;;;;;-2.01;100.00;100195.08;105834;1292;58000;-68
2022/12/25 06:24:23;;;;;;;23.40;8.60;;;;;;;-2.07;100.00;100193.30;105827;1291;59838;-67
2022/12/25 06:27:11;;;;;;;22.70;9.70;;;;;;;-2.11;100.00;100194.44;105817;1292;75169;-66
2022/12/25 06:29:59;;;;;;;22.30;8.50;;;;;;;-2.15;100.00;100204.28;105808;1294;67820;-67
2022/12/25 06:32:47;;;;;;;22.80;9.00;;;;;;;-2.22;100.00;100209.83;105861;1291;72327;-71
2022/12/25 06:35:39;;;;;;;29.20;10.90;;;;;;;-2.29;99.92;100209.64;105862;1292;58610;-67
2022/12/25 06:38:27;;;;;;;29.40;10.90;;;;;;;-2.35;99.97;100214.63;105012;1292;1002528;-71
2022/12/25 06:41:21;;;;;;;25.40;10.10;;;;;;;-2.38;100.00;100216.27;105796;1284;74899;-71
2022/12/25 06:44:09;;;;;;;27.20;10.90;;;;;;;-2.40;99.98;100220.11;105828;1290;66321;-72
2022/12/25 06:46:58;;;;;;;29.30;11.90;;;;;;;-2.38;100.00;100234.00;105799;1294;70980;-72
2022/12/25 06:49:46;;;;;;;24.70;11.10;;;;;;;-2.37;100.00;100240.58;105801;1287;58339;-71
2022/12/25 06:52:34;;;;;;;27.10;10.70;;;;;;;-2.36;100.00;100245.41;105837;1294;60011;-69
2022/12/25 06:55:22;;;;;;;23.50;10.10;;;;;;;-2.37;100.00;100247.36;105801;1287;74902;-72
2022/12/25 06:58:10;;;;;;;24.80;10.40;;;;;;;-2.39;100.00;100247.21;105858;1291;68583;-71
2022/12/25 07:00:58;;;;;;;28.10;10.80;;;;;;;-2.40;99.93;100244.80;105722;1291;71040;-71
2022/12/25 07:03:51;;;;;;;22.80;9.30;;;;;;;-2.42;99.96;100243.80;105723;1294;58050;-73
2022/12/25 07:06:39;;;;;;;29.60;11.50;;;;;;;-2.47;99.92;100259.03;105692;1285;60943;-70
2022/12/25 07:09:27;;;;;;;34.10;13.40;;;;;;;-2.51;99.97;100270.41;105860;1285;71513;-70
2022/12/25 07:12:22;;;;;;;30.90;12.70;;;;;;;-2.51;100.00;100268.67;105751;1294;67369;-68
2022/12/25 07:15:10;;;;;;;25.80;10.40;;;;;;;-2.48;100.00;100273.14;105895;1291;72330;-69
2022/12/25 07:17:58;;;;;;;29.60;11.20;;;;;;;-2.43;100.00;100278.60;105896;1284;59945;-67
2022/12/25 07:20:46;;;;;;;29.30;11.70;;;;;;;-2.37;100.00;100282.28;105892;1291;58804;-71
2022/12/25 07:23:34;;;;;;;31.00;11.80;;;;;;;-2.29;100.00;100280.56;105867;1284;73586;-68
2022/12/25 07:26:22;;;;;;;34.60;12.30;;;;;;;-2.19;100.00;100279.83;105874;1291;68831;-69
2022/12/25 07:29:09;;;;;;;27.30;10.90;;;;;;;-2.09;100.00;100290.02;105873;1298;73501;-71
2022/12/25 07:31:58;;;;;;;28.90;11.80;;;;;;;-1.99;100.00;100293.99;105668;1287;58041;-69
2022/12/25 07:34:46;;;;;;;28.10;9.90;;;;;;;-1.89;100.00;100304.02;105678;1293;61204;-69
2022/12/25 07:37:34;;;;;;;22.50;9.20;;;;;;;-1.82;100.00;100304.91;105706;1294;72385;-69
2022/12/25 07:40:25;;;;;;;31.60;11.10;;;;;;;-1.75;100.00;100297.27;105066;1287;1002428;-67
2022/12/25 07:43:13;;;;;;;32.60;12.20;;;;;;;-1.69;100.00;100301.66;105779;1293;72706;-69
2022/12/25 07:46:01;;;;;;;34.80;13.40;;;;;;;-1.65;100.00;100308.34;105795;1285;58114;-69
2022/12/25 07:48:49;;;;;;;36.90;13.80;;;;;;;-1.60;100.00;100315.71;105816;1293;58644;-66
2022/12/25 07:51:37;;;;;;;40.30;14.20;;;;;;;-1.50;100.00;100310.96;105713;1294;72549;-68
2022/12/25 07:54:25;;;;;;;33.50;12.70;;;;;;;-1.44;100.00;100312.55;105726;1285;67593;-66
2022/12/25 07:57:13;;;;;;;35.80;13.20;;;;;;;-1.40;100.00;100312.63;105790;1295;72223;-68
2022/12/25 08:00:04;;;;;;;37.70;13.20;;;;;;;-1.31;100.00;100320.79;105737;1294;58058;-67
2022/12/25 08:02:59;;;;;;;40.20;14.90;;;;;;;-1.24;100.00;100318.84;105737;1291;59458;-70
2022/12/25 08:05:47;;;;;;;39.80;13.60;;;;;;;-1.17;100.00;100321.14;105040;1295;1003063;-68
2022/12/25 08:08:38;;;;;;;39.80;15.20;;;;;;;-1.07;100.00;100327.48;105695;1294;66521;-68
2022/12/25 08:11:26;;;;;;;42.50;15.50;;;;;;;-1.02;100.00;100327.89;105825;1285;72376;-69
2022/12/25 08:14:15;;;;;;;42.50;16.50;;;;;;;-1.00;100.00;100334.46;105757;1294;58047;-69
2022/12/25 08:17:03;;;;;;;41.00;17.20;;;;;;;-0.96;100.00;100334.55;105011;1294;1014755;-69
2022/12/25 08:19:51;;;;;;;51.20;18.60;;;;;;;-0.95;100.00;100335.00;105820;1293;73448;-69
2022/12/25 08:22:39;;;;;;;44.50;16.00;;;;;;;-0.93;100.00;100338.43;105789;1286;67609;-71
2022/12/25 08:25:27;;;;;;;39.50;14.60;;;;;;;-0.95;100.00;100336.58;105705;1290;72527;-71
2022/12/25 08:28:16;;;;;;;50.40;19.80;;;;;;;-0.85;100.00;100337.90;105802;1294;58457;-69
2022/12/25 08:31:21;;;;;;;44.70;17.10;;;;;;;-0.73;100.00;100333.58;105850;1291;58668;-71
2022/12/25 08:34:10;;;;;;;46.80;16.70;;;;;;;-0.57;100.00;100333.14;105889;1284;73807;-70
2022/12/25 08:36:58;;;;;;;51.50;18.20;;;;;;;-0.46;100.00;100342.95;105544;1296;67810;-70
2022/12/25 08:39:46;;;;;;;37.30;13.60;;;;;;;-0.36;100.00;100344.76;105531;1290;72603;-68
2022/12/25 08:42:34;;;;;;;41.00;14.60;;;;;;;-0.29;99.88;100339.16;105558;1294;58274;-70
2022/12/25 08:45:23;;;;;;;41.30;14.70;;;;;;;-0.20;99.71;100334.35;105554;1297;60518;-68
2022/12/25 08:48:18;;;;;;;36.60;14.70;;;;;;;-0.14;99.29;100334.39;105580;1296;73625;-72
2022/12/25 08:51:13;;;;;;;39.90;15.30;;;;;;;-0.07;99.45;100327.89;105470;1298;66228;-67
2022/12/25 08:54:02;;;;;;;36.80;14.20;;;;;;;0.04;99.40;100328.27;105351;1296;72636;-69
2022/12/25 08:56:50;;;;;;;36.90;14.90;;;;;;;0.11;99.13;100332.23;105468;1297;58707;-67
2022/12/25 08:59:38;;;;;;;44.70;17.10;;;;;;;0.21;98.85;100332.30;105479;1290;60075;-69
2022/12/25 09:02:26;;;;;;;40.20;16.20;;;;;;;0.30;99.04;100333.60;105397;1297;75147;-72
2022/12/25 09:05:15;;;;;;;42.50;16.60;;;;;;;0.37;98.81;100329.54;105473;1298;68325;-73
2022/12/25 09:08:03;;;;;;;47.90;4.70;;;;;;;0.43;98.46;100327.23;105635;1294;72349;-71
2022/12/25 09:10:52;;;;;;;46.70;18.90;;;;;;;0.45;97.84;100324.91;105773;1293;58145;-67
2022/12/25 09:13:40;;;;;;;41.90;17.10;;;;;;;0.48;97.75;100337.38;105799;1294;60115;-70
2022/12/25 09:16:28;;;;;;;47.10;18.70;;;;;;;0.54;97.99;100342.09;105724;1293;72282;-69
2022/12/25 09:19:16;;;;;;;47.10;18.90;;;;;;;0.63;97.85;100349.14;105797;1286;68871;-70
2022/12/25 09:22:05;;;;;;;40.90;17.40;;;;;;;0.68;97.49;100352.66;105706;1290;72659;-69
2022/12/25 09:24:52;;;;;;;43.40;17.30;;;;;;;0.69;97.58;100344.21;105774;1292;58038;-72
2022/12/25 09:27:42;;;;;;;45.00;19.00;;;;;;;0.71;97.31;100334.56;105819;1293;58715;-72
2022/12/25 09:30:30;;;;;;;48.00;21.00;;;;;;;0.72;97.12;100339.95;105726;1294;73811;-73
2022/12/25 09:33:19;;;;;;;46.00;19.00;;;;;;;0.72;97.21;100335.41;105683;1286;68904;-72
2022/12/25 09:36:08;;;;;;;38.20;15.90;;;;;;;0.72;96.96;100335.23;105617;1285;71277;-74
2022/12/25 09:38:56;;;;;;;49.40;19.10;;;;;;;0.75;97.00;100337.39;105794;1294;58737;-72
2022/12/25 09:41:47;;;;;;;38.90;17.50;;;;;;;0.80;97.28;100339.66;105700;1294;59004;-72
2022/12/25 09:44:49;;;;;;;41.90;17.60;;;;;;;0.87;97.21;100335.95;105814;1287;73576;-70
2022/12/25 09:47:40;;;;;;;41.20;17.60;;;;;;;0.97;97.37;100338.92;105756;1293;66266;-73
2022/12/25 09:51:03;;;;;;;36.30;15.10;;;;;;;1.06;97.59;100349.49;105709;1285;72601;-73
2022/12/25 09:53:59;;;;;;;38.80;15.90;;;;;;;1.09;96.99;100352.36;105800;1293;58443;-70
2022/12/25 09:56:48;;;;;;;40.60;16.60;;;;;;;1.08;96.87;100357.61;105828;1294;60486;-73
2022/12/25 09:59:37;;;;;;;42.70;17.20;;;;;;;1.06;96.70;100357.88;105807;1294;72250;-69
2022/12/25 10:02:54;;;;;;;42.20;17.50;;;;;;;1.05;96.42;100361.59;105657;1294;67683;-70
2022/12/25 10:06:17;;;;;;;41.70;17.40;;;;;;;1.00;96.25;100366.27;105747;1294;72281;-70
2022/12/25 10:09:55;;;;;;;42.70;18.00;;;;;;;0.93;96.12;100370.52;105776;1294;58497;-72
2022/12/25 10:12:56;;;;;;;36.70;16.30;;;;;;;0.85;96.43;100364.67;105839;1294;58898;-71
2022/12/25 10:15:59;;;;;;;27.20;10.80;;;;;;;0.83;96.81;100369.45;105821;1294;73829;-74
2022/12/25 10:19:18;;;;;;;37.60;16.30;;;;;;;0.82;97.16;100357.98;105807;1293;66480;-71
2022/12/25 10:22:18;;;;;;;36.90;16.00;;;;;;;0.83;97.62;100353.39;105837;1284;72262;-72
2022/12/25 10:25:22;;;;;;;27.00;12.80;;;;;;;0.88;97.77;100363.70;105747;1292;57949;-68
2022/12/25 10:28:43;;;;;;;31.20;11.50;;;;;;;0.90;97.71;100363.80;105800;1291;60228;-70
2022/12/25 10:31:35;;;;;;;28.60;13.80;;;;;;;1.00;98.07;100359.30;105700;1290;72326;-69
2022/12/25 10:34:24;;;;;;;27.20;12.00;;;;;;;1.09;98.26;100352.70;105722;1290;66804;-71
2022/12/25 10:37:12;;;;;;;24.40;10.50;;;;;;;1.16;97.73;100346.17;105901;1298;71213;-69
2022/12/25 10:40:01;;;;;;;31.30;12.00;;;;;;;1.20;97.60;100341.83;105734;1287;58051;-74
2022/12/25 10:42:57;;;;;;;54.90;22.90;;;;;;;1.22;97.50;100340.17;105765;1292;60093;-73
2022/12/25 10:45:48;;;;;;;29.50;12.50;;;;;;;1.27;97.55;100341.96;105727;1291;74643;-70
2022/12/25 10:48:46;;;;;;;28.60;13.10;;;;;;;1.30;97.21;100339.20;105764;1292;66234;-71
2022/12/25 10:51:38;;;;;;;29.00;12.00;;;;;;;1.39;97.36;100336.64;105867;1285;71183;-73
2022/12/25 10:54:33;;;;;;;28.00;12.30;;;;;;;1.51;97.44;100337.08;105754;1291;57983;-72
2022/12/25 10:57:25;;;;;;;25.40;12.30;;;;;;;1.65;96.98;100332.20;105768;1294;60105;-72
2022/12/25 11:00:22;;;;;;;30.20;12.40;;;;;;;1.77;96.81;100328.45;105697;1294;72430;-73
2022/12/25 11:03:24;;;;;;;27.10;11.20;;;;;;;1.87;96.22;100328.92;105670;1295;66485;-71
2022/12/25 11:06:28;;;;;;;28.30;11.80;;;;;;;1.92;95.95;100323.36;105779;1287;71437;-71
2022/12/25 11:09:16;;;;;;;24.30;11.60;;;;;;;1.95;95.54;100322.72;105630;1290;58196;-70
2022/12/25 11:12:05;;;;;;;25.00;10.30;;;;;;;1.97;95.35;100326.31;105714;1294;60182;-73
2022/12/25 11:15:21;;;;;;;27.20;10.10;;;;;;;1.92;94.70;100330.67;105673;1293;74726;-72
2022/12/25 11:18:18;;;;;;;25.30;11.00;;;;;;;1.81;94.79;100333.55;105790;1293;67547;-72
2022/12/25 11:21:23;;;;;;;24.70;11.30;;;;;;;1.72;94.92;100334.77;105786;1287;72732;-70
2022/12/25 11:24:20;;;;;;;29.80;12.80;;;;;;;1.69;95.61;100329.61;105799;1294;58034;-70
2022/12/25 11:27:27;;;;;;;27.10;11.90;;;;;;;1.71;96.01;100332.70;105699;1293;58973;-69
2022/12/25 11:30:15;;;;;;;26.40;11.70;;;;;;;1.72;96.25;100325.85;105710;1294;73811;-71
2022/12/25 11:33:11;;;;;;;26.40;11.30;;;;;;;1.74;96.73;100323.67;105705;1286;68085;-68
2022/12/25 11:36:07;;;;;;;26.70;11.60;;;;;;;1.73;96.90;100326.33;105708;1295;71342;-70
2022/12/25 11:39:04;;;;;;;26.00;11.20;;;;;;;1.73;97.32;100317.05;105665;1297;58523;-69
2022/12/25 11:42:04;;;;;;;27.70;11.40;;;;;;;1.76;97.45;100311.17;105708;1283;60025;-69
2022/12/25 11:45:13;;;;;;;26.30;10.40;;;;;;;1.81;97.67;100310.45;105777;1294;74863;-68
2022/12/25 11:48:10;;;;;;;22.60;9.70;;;;;;;1.85;97.67;100301.02;105699;1290;67523;-71
2022/12/25 11:51:04;;;;;;;21.10;8.40;;;;;;;1.86;97.38;100305.35;105712;1294;71833;-69
2022/12/25 11:54:06;;;;;;;25.80;9.70;;;;;;;1.89;97.68;100307.72;105730;1295;58223;-71
2022/12/25 11:56:59;;;;;;;20.80;9.60;;;;;;;1.91;97.53;100309.55;105749;1287;58598;-70
2022/12/25 12:00:08;;;;;;;21.90;8.50;;;;;;;1.97;97.92;100305.65;105899;1292;72749;-67
2022/12/25 12:03:14;;;;;;;26.70;10.30;;;;;;;1.99;97.07;100311.34;105726;1292;67860;-69
2022/12/25 12:06:40;;;;;;;22.10;9.40;;;;;;;1.95;96.61;100316.73;105784;1291;72384;-70
2022/12/25 12:10:25;;;;;;;25.20;10.40;;;;;;;1.91;96.84;100326.88;105776;1292;58533;-70
2022/12/25 12:13:43;;;;;;;24.50;10.60;;;;;;;1.92;97.08;100321.95;105764;1292;60538;-71
2022/12/25 12:16:33;;;;;;;24.30;10.40;;;;;;;1.93;97.18;100317.35;105854;1293;73561;-71
2022/12/25 12:19:25;;;;;;;27.40;10.60;;;;;;;1.97;96.97;100313.86;105793;1291;68024;-69
2022/12/25 12:22:23;;;;;;;28.40;11.80;;;;;;;1.99;96.77;100310.63;105755;1294;70390;-69
2022/12/25 12:25:17;;;;;;;28.50;11.00;;;;;;;1.92;96.17;100312.83;105731;1291;58190;-71
2022/12/25 12:28:05;;;;;;;32.70;12.50;;;;;;;1.84;96.40;100319.42;105747;1288;60227;-69
2022/12/25 12:31:12;;;;;;;35.40;14.30;;;;;;;1.82;96.71;100329.48;105769;1294;71983;-68
2022/12/25 12:34:01;;;;;;;38.00;13.80;;;;;;;1.80;96.49;100340.95;105870;1292;67602;-69
2022/12/25 12:36:55;;;;;;;34.50;13.00;;;;;;;1.77;96.75;100350.33;105740;1295;71396;-70
2022/12/25 12:39:43;;;;;;;37.90;14.40;;;;;;;1.69;96.58;100351.83;105708;1295;58491;-72
2022/12/25 12:42:43;;;;;;;33.00;14.10;;;;;;;1.63;96.73;100352.39;105934;1285;58838;-72
2022/12/25 12:45:37;;;;;;;37.80;14.00;;;;;;;1.63;96.91;100356.55;105873;1293;73686;-71
2022/12/25 12:48:28;;;;;;;28.40;10.90;;;;;;;1.61;97.08;100361.22;105911;1291;65622;-70
2022/12/25 12:51:33;;;;;;;40.90;16.60;;;;;;;1.57;97.32;100357.33;105735;1289;73462;-71
2022/12/25 12:54:25;;;;;;;46.50;16.90;;;;;;;1.53;97.40;100359.05;105872;1284;58199;-70
2022/12/25 12:57:28;;;;;;;41.10;16.40;;;;;;;1.48;97.54;100357.99;105898;1291;58632;-70
2022/12/25 13:00:20;;;;;;;46.70;16.10;;;;;;;1.45;97.91;100355.29;105781;1293;73748;-71
2022/12/25 13:03:47;;;;;;;39.00;13.90;;;;;;;1.42;98.19;100357.36;105675;1293;66673;-71
2022/12/25 13:07:29;;;;;;;46.40;18.00;;;;;;;1.36;98.62;100348.79;105797;1291;72679;-70
2022/12/25 13:10:33;;;;;;;46.20;18.20;;;;;;;1.35;98.85;100345.35;105809;1290;58070;-70
2022/12/25 13:13:35;;;;;;;49.80;17.90;;;;;;;1.33;99.22;100345.59;105634;1298;59480;-68
2022/12/25 13:16:28;;;;;;;47.20;18.50;;;;;;;1.29;99.18;100346.77;105703;1293;73647;-69
2022/12/25 13:19:21;;;;;;;51.10;18.20;;;;;;;1.29;99.55;100351.64;105690;1294;67614;-72
2022/12/25 13:22:25;;;;;;;46.70;18.60;;;;;;;1.34;99.76;100354.27;105791;1292;71528;-71
2022/12/25 13:25:20;;;;;;;50.70;18.90;;;;;;;1.40;99.66;100354.27;105697;1291;59681;-72
2022/12/25 13:28:13;;;;;;;54.50;19.20;;;;;;;1.43;99.55;100353.09;105621;1297;59079;-71
2022/12/25 13:31:16;;;;;;;51.40;18.80;;;;;;;1.44;99.18;100355.16;105686;1294;72536;-72
2022/12/25 13:34:36;;;;;;;50.40;19.70;;;;;;;1.41;99.04;100355.10;105667;1293;67876;-67
2022/12/25 13:37:29;;;;;;;54.80;20.20;;;;;;;1.38;99.32;100348.90;105802;1294;72440;-71
2022/12/25 13:40:25;;;;;;;55.00;20.40;;;;;;;1.35;99.22;100342.38;105625;1297;58379;-70
2022/12/25 13:43:13;;;;;;;53.70;21.00;;;;;;;1.33;99.14;100341.21;105544;1290;58699;-71
2022/12/25 13:46:01;;;;;;;58.20;20.90;;;;;;;1.32;99.24;100341.77;105681;1295;73799;-71
2022/12/25 13:48:59;;;;;;;56.70;21.00;;;;;;;1.31;99.30;100338.67;105806;1290;67757;-71
2022/12/25 13:51:49;;;;;;;57.20;20.90;;;;;;;1.30;99.33;100335.73;105802;1294;72563;-69
2022/12/25 13:54:37;;;;;;;57.00;21.30;;;;;;;1.29;99.37;100342.91;105677;1300;58258;-68
2022/12/25 13:57:58;;;;;;;51.60;19.70;;;;;;;1.30;99.63;100347.95;105664;1294;58978;-69
2022/12/25 14:00:52;;;;;;;56.80;20.20;;;;;;;1.27;99.80;100344.55;105789;1287;73745;-67
2022/12/25 14:03:45;;;;;;;60.70;22.30;;;;;;;1.27;99.45;100343.52;105759;1294;68638;-72
2022/12/25 14:06:33;;;;;;;57.70;21.60;;;;;;;1.25;99.49;100346.23;105772;1287;72689;-69
2022/12/25 14:09:22;;;;;;;53.40;20.20;;;;;;;1.24;99.76;100345.20;105771;1290;58211;-69
2022/12/25 14:12:10;;;;;;;55.50;20.10;;;;;;;1.22;99.75;100342.48;105776;1294;60233;-72
2022/12/25 14:15:06;;;;;;;55.30;21.00;;;;;;;1.21;99.69;100352.29;105724;1293;71396;-68
2022/12/25 14:17:54;;;;;;;55.90;21.60;;;;;;;1.18;99.57;100353.41;105790;1290;67856;-69
2022/12/25 14:21:01;;;;;;;56.90;21.90;;;;;;;1.13;99.77;100351.52;105771;1295;72426;-67
2022/12/25 14:23:49;;;;;;;53.70;20.80;;;;;;;1.09;99.98;100354.30;105044;1294;1002360;-68
2022/12/25 14:26:37;;;;;;;62.40;22.20;;;;;;;1.04;100.00;100355.14;105768;1290;61087;-69
2022/12/25 14:29:40;;;;;;;59.20;22.90;;;;;;;1.02;99.99;100354.86;105783;1290;73744;-69
2022/12/25 14:32:37;;;;;;;61.70;22.00;;;;;;;1.01;100.00;100354.02;105725;1287;67759;-69
2022/12/25 14:35:25;;;;;;;60.40;22.20;;;;;;;0.98;100.00;100354.80;105768;1298;71236;-68
2022/12/25 14:38:33;;;;;;;60.30;22.50;;;;;;;0.96;100.00;100356.63;105781;1295;58086;-69
2022/12/25 14:41:36;;;;;;;63.90;22.20;;;;;;;0.90;100.00;100354.73;105699;1294;58223;-70